Time;durP1;ratioP1;P1;durP2;ratioP2;P2;SDS_P1;SDS_P2;PMS_P1;PMS_P2;Temp;Humidity;BMP_temperature;BMP_pressure;BME280_temperature;BME280_humidity;BME280_pressure;Samples;Min_cycle;Max_cycle;Signal;HPM_P1;HPM_P2
2023/08/01 00:02:23;;;;;;;5.15;2.92;;;24.60;57.10;;;;;;6128039;28;80434;-45
2023/08/01 00:05:23;;;;;;;4.35;2.45;;;24.60;57.10;;;;;;6118555;28;82671;-47
2023/08/01 00:08:24;;;;;;;4.47;2.42;;;24.60;57.60;;;;;;6126730;28;80494;-47
2023/08/01 00:11:24;;;;;;;5.95;3.15;;;24.70;57.10;;;;;;6111553;28;82290;-47
2023/08/01 00:14:25;;;;;;;4.78;2.95;;;24.70;57.00;;;;;;6118948;28;82447;-49
2023/08/01 00:17:25;;;;;;;5.80;2.90;;;24.70;57.00;;;;;;6122033;28;80960;-46
2023/08/01 00:20:26;;;;;;;3.97;2.90;;;24.60;57.10;;;;;;6125266;28;83405;-48
2023/08/01 00:23:27;;;;;;;5.60;2.75;;;24.70;57.20;;;;;;6127365;28;80726;-46
2023/08/01 00:26:27;;;;;;;7.45;3.08;;;24.60;57.20;;;;;;6106951;28;81387;-47
2023/08/01 00:29:28;;;;;;;5.53;3.20;;;24.60;57.00;;;;;;6119083;28;81285;-49
2023/08/01 00:32:28;;;;;;;5.13;3.30;;;24.50;56.90;;;;;;6107819;28;81843;-46
2023/08/01 00:35:29;;;;;;;5.80;3.20;;;24.50;56.80;;;;;;6109303;28;80392;-50
2023/08/01 00:38:29;;;;;;;3.97;2.83;;;24.50;56.90;;;;;;6103301;28;80689;-48
2023/08/01 00:41:30;;;;;;;7.45;2.72;;;24.40;57.10;;;;;;6098496;28;82370;-45
2023/08/01 00:44:31;;;;;;;23.38;4.80;;;24.30;56.80;;;;;;6104865;28;80558;-47
2023/08/01 00:47:32;;;;;;;6.32;2.88;;;24.10;57.00;;;;;;6118183;28;80942;-49
2023/08/01 00:50:32;;;;;;;4.35;2.50;;;24.00;57.30;;;;;;6103418;28;83178;-52
2023/08/01 00:53:33;;;;;;;6.78;3.22;;;23.70;57.40;;;;;;6102925;28;81343;-68
2023/08/01 00:56:33;;;;;;;6.13;3.13;;;23.50;57.90;;;;;;6126785;28;83468;-69
2023/08/01 00:59:35;;;;;;;9.45;3.28;;;23.50;58.20;;;;;;6120354;28;80549;-69
2023/08/01 01:02:36;;;;;;;5.18;2.97;;;23.50;58.20;;;;;;6120476;28;83072;-69
2023/08/01 01:05:36;;;;;;;5.68;2.78;;;23.40;58.10;;;;;;6125563;28;80582;-69
2023/08/01 01:08:37;;;;;;;3.22;2.63;;;23.40;58.30;;;;;;6115836;28;82122;-68
2023/08/01 01:11:37;;;;;;;5.93;2.80;;;23.40;58.30;;;;;;6131124;28;80836;-60
2023/08/01 01:14:38;;;;;;;5.10;3.20;;;23.40;58.30;;;;;;6140324;28;84026;-60
2023/08/01 01:17:38;;;;;;;5.00;2.80;;;23.30;58.60;;;;;;6126454;28;80561;-58
2023/08/01 01:20:39;;;;;;;6.70;2.60;;;23.30;58.50;;;;;;6118213;28;80614;-59
2023/08/01 01:23:40;;;;;;;4.95;2.72;;;23.20;58.50;;;;;;6089997;28;83821;-59
2023/08/01 01:26:40;;;;;;;4.35;2.60;;;23.30;58.50;;;;;;6116842;28;81090;-60
2023/08/01 01:29:41;;;;;;;5.57;2.97;;;23.40;58.80;;;;;;6098801;28;80306;-68
2023/08/01 01:32:41;;;;;;;4.18;2.80;;;23.50;58.30;;;;;;6124575;28;81772;-68
2023/08/01 01:35:42;;;;;;;4.10;2.53;;;23.60;58.30;;;;;;6118625;28;83338;-68
2023/08/01 01:38:42;;;;;;;4.75;2.50;;;23.60;58.00;;;;;;6104148;28;80638;-67
2023/08/01 01:41:43;;;;;;;5.15;3.08;;;23.50;58.00;;;;;;6109728;28;83246;-68
2023/08/01 01:44:44;;;;;;;5.68;2.70;;;23.40;58.20;;;;;;6098951;28;82233;-67
2023/08/01 01:47:44;;;;;;;5.82;3.13;;;23.50;58.00;;;;;;6126236;28;83519;-54
2023/08/01 01:50:45;;;;;;;11.00;2.90;;;23.40;58.00;;;;;;6099057;28;82713;-57
2023/08/01 01:53:45;;;;;;;4.43;2.85;;;23.50;57.80;;;;;;6106779;28;83088;-55
2023/08/01 01:56:46;;;;;;;9.23;3.50;;;23.50;57.80;;;;;;6111647;28;83016;-56
2023/08/01 01:59:46;;;;;;;3.35;2.63;;;23.50;57.70;;;;;;6106036;28;83044;-56
2023/08/01 02:02:47;;;;;;;4.50;2.58;;;23.60;57.70;;;;;;6112826;28;82293;-57
2023/08/01 02:05:48;;;;;;;6.57;2.85;;;23.70;57.50;;;;;;6120235;28;81678;-60
2023/08/01 02:08:48;;;;;;;5.10;3.33;;;23.70;57.30;;;;;;6130037;28;83436;-61
2023/08/01 02:11:49;;;;;;;5.88;2.15;;;23.80;57.10;;;;;;6111087;28;83359;-61
2023/08/01 02:14:50;;;;;;;6.00;2.70;;;23.90;57.00;;;;;;6111783;28;81200;-61
2023/08/01 02:17:50;;;;;;;3.88;3.00;;;23.90;57.00;;;;;;6120739;28;81993;-62
2023/08/01 02:20:51;;;;;;;3.95;2.58;;;24.00;57.00;;;;;;6144199;28;83663;-60
2023/08/01 02:23:51;;;;;;;6.32;3.03;;;24.10;57.00;;;;;;6137634;28;81700;-62
2023/08/01 02:26:52;;;;;;;4.45;2.70;;;24.10;57.00;;;;;;6120037;28;83517;-61
2023/08/01 02:29:52;;;;;;;7.88;3.05;;;24.10;56.90;;;;;;6140603;28;80708;-59
2023/08/01 02:32:53;;;;;;;3.88;2.60;;;24.10;56.80;;;;;;6122428;28;82045;-61
2023/08/01 02:35:53;;;;;;;4.40;2.60;;;23.90;57.00;;;;;;6129415;28;80416;-61
2023/08/01 02:38:54;;;;;;;6.80;2.95;;;24.00;57.20;;;;;;6120300;28;80840;-62
2023/08/01 02:41:54;;;;;;;4.10;2.33;;;24.00;57.10;;;;;;6129639;28;81704;-61
2023/08/01 02:44:55;;;;;;;4.95;2.63;;;24.10;57.20;;;;;;6140395;28;81636;-57
2023/08/01 02:47:56;;;;;;;4.55;2.92;;;24.10;57.30;;;;;;6110623;28;84738;-55
2023/08/01 02:50:57;;;;;;;4.47;2.65;;;24.10;57.50;;;;;;6107442;28;80733;-56
2023/08/01 02:53:57;;;;;;;4.72;2.92;;;24.10;57.50;;;;;;6095363;28;82200;-58
2023/08/01 02:56:58;;;;;;;4.93;2.70;;;24.10;57.40;;;;;;6119390;28;83453;-57
2023/08/01 02:59:59;;;;;;;5.97;3.40;;;24.20;57.60;;;;;;6106032;28;82822;-57
2023/08/01 03:02:59;;;;;;;7.30;3.08;;;24.20;57.70;;;;;;6113696;28;80342;-55
2023/08/01 03:06:00;;;;;;;9.13;3.28;;;24.20;57.70;;;;;;6116567;28;81094;-53
2023/08/01 03:09:00;;;;;;;4.97;2.67;;;24.20;57.70;;;;;;6108855;28;80899;-55
2023/08/01 03:12:01;;;;;;;3.67;2.67;;;24.20;58.00;;;;;;6116788;28;80518;-57
2023/08/01 03:15:01;;;;;;;5.82;3.15;;;24.20;57.80;;;;;;6112550;28;80864;-59
2023/08/01 03:18:03;;;;;;;3.85;2.63;;;24.20;57.90;;;;;;6128781;28;80917;-58
2023/08/01 03:21:04;;;;;;;5.22;3.20;;;24.30;58.00;;;;;;6114881;28;85245;-46
2023/08/01 03:24:08;;;;;;;6.95;3.05;;;24.30;58.00;;;;;;6107518;28;81737;-46
2023/08/01 03:27:08;;;;;;;5.15;3.40;;;24.30;58.20;;;;;;6118225;28;80609;-47
2023/08/01 03:30:09;;;;;;;6.95;3.28;;;24.30;58.20;;;;;;6119949;28;82709;-45
2023/08/01 03:33:10;;;;;;;5.72;3.33;;;24.30;58.40;;;;;;6126222;28;80434;-47
2023/08/01 03:36:10;;;;;;;6.85;3.03;;;24.30;58.40;;;;;;6111073;28;82147;-47
2023/08/01 03:39:11;;;;;;;4.85;3.47;;;24.30;58.40;;;;;;6132670;28;83523;-56
2023/08/01 03:42:11;;;;;;;5.25;3.03;;;24.20;57.80;;;;;;6118074;28;83208;-57
2023/08/01 03:45:12;;;;;;;5.80;2.75;;;24.10;57.90;;;;;;6136280;28;80290;-59
2023/08/01 03:48:12;;;;;;;6.63;3.20;;;24.00;57.90;;;;;;6128564;28;81662;-57
2023/08/01 03:51:15;;;;;;;6.88;3.08;;;24.00;57.60;;;;;;6118565;28;82954;-56
2023/08/01 03:54:15;;;;;;;5.63;3.10;;;24.00;57.50;;;;;;6148836;28;81658;-57
2023/08/01 03:57:16;;;;;;;7.63;3.10;;;24.00;57.70;;;;;;6144709;28;82662;-59
2023/08/01 04:00:18;;;;;;;5.75;2.80;;;24.00;57.70;;;;;;6127483;28;80525;-58
2023/08/01 04:03:18;;;;;;;5.10;2.83;;;24.00;57.60;;;;;;6098624;28;82911;-54
2023/08/01 04:06:19;;;;;;;3.83;2.40;;;24.00;57.60;;;;;;6109390;28;83440;-57
2023/08/01 04:09:19;;;;;;;3.97;2.40;;;23.90;57.40;;;;;;6107203;28;81599;-55
2023/08/01 04:12:20;;;;;;;3.60;2.45;;;23.90;57.50;;;;;;6095333;28;82059;-59
2023/08/01 04:15:20;;;;;;;5.43;2.40;;;23.90;57.20;;;;;;6109372;28;80909;-61
2023/08/01 04:18:21;;;;;;;3.28;2.33;;;23.50;57.40;;;;;;6104978;28;83057;-60
2023/08/01 04:21:21;;;;;;;3.85;1.88;;;23.30;57.90;;;;;;6107404;28;80550;-59
2023/08/01 04:24:25;;;;;;;6.80;2.10;;;23.10;58.10;;;;;;6094848;28;82535;-61
2023/08/01 04:27:25;;;;;;;7.95;2.42;;;23.00;58.70;;;;;;6103140;28;81038;-60
2023/08/01 04:30:26;;;;;;;7.22;2.00;;;22.90;58.90;;;;;;6107216;28;80152;-60
2023/08/01 04:33:26;;;;;;;7.15;2.03;;;22.80;58.90;;;;;;6103357;28;80967;-60
2023/08/01 04:36:27;;;;;;;4.78;2.17;;;22.80;59.10;;;;;;6104224;28;80789;-60
2023/08/01 04:39:27;;;;;;;3.50;2.10;;;22.70;59.20;;;;;;6094986;28;82475;-59
2023/08/01 04:42:28;;;;;;;5.20;2.15;;;22.80;59.50;;;;;;6112501;28;82771;-61
2023/08/01 04:45:29;;;;;;;5.35;2.70;;;22.70;59.50;;;;;;6105236;28;82375;-60
2023/08/01 04:48:29;;;;;;;6.55;2.35;;;22.60;59.80;;;;;;6126895;28;80203;-60
2023/08/01 04:51:30;;;;;;;7.00;2.85;;;22.60;60.20;;;;;;6129707;28;82768;-60
2023/08/01 04:54:30;;;;;;;5.00;2.15;;;22.60;60.30;;;;;;6124388;28;82694;-60
2023/08/01 04:57:31;;;;;;;3.88;1.95;;;22.50;60.60;;;;;;6115692;28;80481;-60
2023/08/01 05:00:31;;;;;;;5.50;2.30;;;22.50;60.70;;;;;;6118685;28;82753;-59
2023/08/01 05:03:32;;;;;;;9.90;2.28;;;22.50;61.00;;;;;;6126080;28;80495;-60
2023/08/01 05:06:32;;;;;;;3.78;1.80;;;22.40;60.70;;;;;;6127735;28;82425;-60
2023/08/01 05:09:33;;;;;;;5.78;2.15;;;22.40;60.50;;;;;;6124526;28;80358;-54
2023/08/01 05:12:33;;;;;;;5.13;2.28;;;22.30;60.70;;;;;;6126874;28;81821;-55
2023/08/01 05:15:34;;;;;;;4.35;2.28;;;22.20;60.80;;;;;;6118988;28;82821;-54
2023/08/01 05:18:34;;;;;;;4.78;2.05;;;22.20;60.90;;;;;;6144194;28;80650;-57
2023/08/01 05:21:35;;;;;;;6.97;2.60;;;22.20;60.80;;;;;;6113338;28;81329;-56
2023/08/01 05:24:35;;;;;;;4.70;2.08;;;22.10;60.70;;;;;;6132946;28;80792;-56
2023/08/01 05:27:36;;;;;;;4.68;2.25;;;22.20;60.90;;;;;;6106777;28;83796;-58
2023/08/01 05:30:36;;;;;;;3.65;1.95;;;22.30;60.90;;;;;;6115324;28;80619;-60
2023/08/01 05:33:37;;;;;;;4.30;2.22;;;22.20;60.30;;;;;;6129511;28;82029;-60
2023/08/01 05:36:38;;;;;;;6.30;2.17;;;22.20;60.20;;;;;;6109270;28;80924;-60
2023/08/01 05:39:38;;;;;;;4.00;2.40;;;22.20;60.20;;;;;;6143378;28;80756;-61
2023/08/01 05:42:39;;;;;;;5.35;2.00;;;22.20;60.40;;;;;;6108917;28;83145;-57
2023/08/01 05:45:39;;;;;;;3.22;2.20;;;22.30;60.60;;;;;;6125071;28;80328;-60
2023/08/01 05:48:40;;;;;;;4.63;2.28;;;22.30;60.50;;;;;;6120858;28;81137;-56
2023/08/01 05:51:40;;;;;;;3.13;1.83;;;22.40;60.80;;;;;;6150921;28;80812;-57
2023/08/01 05:54:41;;;;;;;5.13;1.80;;;22.40;60.70;;;;;;6136733;28;82394;-56
2023/08/01 05:57:41;;;;;;;4.93;1.90;;;22.50;60.20;;;;;;6110800;28;83916;-49
2023/08/01 06:00:42;;;;;;;3.80;2.28;;;22.50;60.30;;;;;;6115516;28;80516;-59
2023/08/01 06:03:42;;;;;;;5.45;1.60;;;22.60;60.00;;;;;;6108896;28;81646;-56
2023/08/01 06:06:43;;;;;;;5.90;2.17;;;22.70;59.70;;;;;;6125095;28;80628;-58
2023/08/01 06:09:44;;;;;;;5.10;2.22;;;22.80;59.80;;;;;;6108302;28;81822;-57
2023/08/01 06:12:44;;;;;;;11.85;2.90;;;22.90;59.80;;;;;;6119474;28;80430;-57
2023/08/01 06:15:45;;;;;;;8.25;2.38;;;22.90;59.30;;;;;;6126935;28;82963;-57
2023/08/01 06:18:45;;;;;;;8.07;3.00;;;23.00;59.20;;;;;;6105842;28;84196;-56
2023/08/01 06:21:46;;;;;;;4.63;2.28;;;23.00;58.80;;;;;;6121370;28;80522;-57
2023/08/01 06:24:46;;;;;;;4.03;2.30;;;23.00;58.70;;;;;;6108372;28;82291;-56
2023/08/01 06:27:47;;;;;;;4.35;2.53;;;23.00;58.90;;;;;;6123386;28;81661;-56
2023/08/01 06:30:47;;;;;;;3.85;2.35;;;23.10;59.10;;;;;;6113338;28;82601;-58
2023/08/01 06:33:48;;;;;;;3.92;2.50;;;23.10;59.10;;;;;;6116936;28;80640;-57
2023/08/01 06:36:49;;;;;;;4.38;2.70;;;23.10;59.50;;;;;;6118558;28;80542;-57
2023/08/01 06:39:50;;;;;;;4.68;2.10;;;23.10;59.50;;;;;;6104214;28;82335;-58
2023/08/01 06:42:50;;;;;;;10.70;2.85;;;23.10;59.60;;;;;;6130495;28;81355;-57
2023/08/01 06:45:51;;;;;;;7.97;2.28;;;23.10;59.60;;;;;;6118528;28;80555;-59
2023/08/01 06:48:51;;;;;;;4.40;2.47;;;23.20;59.40;;;;;;6120504;28;80698;-58
2023/08/01 06:51:52;;;;;;;6.57;2.67;;;23.20;59.30;;;;;;6121133;28;80795;-57
2023/08/01 06:54:52;;;;;;;6.03;3.00;;;23.10;59.50;;;;;;6117680;28;81173;-57
2023/08/01 06:57:53;;;;;;;4.03;2.55;;;23.10;59.60;;;;;;6118270;28;81771;-57
2023/08/01 07:00:53;;;;;;;4.10;2.80;;;23.10;59.70;;;;;;6105586;28;80398;-62
2023/08/01 07:03:55;;;;;;;4.10;2.30;;;23.10;60.10;;;;;;6120389;28;80834;-63
2023/08/01 07:06:55;;;;;;;4.00;2.50;;;23.20;60.00;;;;;;6121708;28;81567;-63
2023/08/01 07:09:56;;;;;;;4.50;2.55;;;23.20;60.10;;;;;;6137367;28;80393;-65
2023/08/01 07:12:56;;;;;;;4.82;2.65;;;23.20;60.20;;;;;;6139108;28;80708;-63
2023/08/01 07:15:57;;;;;;;5.20;2.75;;;23.20;60.50;;;;;;6135099;28;80941;-62
2023/08/01 07:18:57;;;;;;;8.10;2.65;;;23.20;60.60;;;;;;6131559;28;80594;-57
2023/08/01 07:21:58;;;;;;;6.88;3.30;;;23.20;61.10;;;;;;6122900;28;80846;-53
2023/08/01 07:24:59;;;;;;;5.10;2.50;;;23.20;61.20;;;;;;6130516;28;80610;-57
2023/08/01 07:27:59;;;;;;;9.05;2.90;;;23.20;61.20;;;;;;6112975;28;80514;-57
2023/08/01 07:31:00;;;;;;;3.35;2.50;;;23.20;61.30;;;;;;6108464;28;81028;-55
2023/08/01 07:34:00;;;;;;;6.03;2.72;;;23.30;61.50;;;;;;6116375;28;82680;-56
2023/08/01 07:37:01;;;;;;;5.03;2.58;;;23.40;61.80;;;;;;6106278;28;80748;-64
2023/08/01 07:40:01;;;;;;;8.90;3.05;;;23.40;61.80;;;;;;6120368;28;82603;-65
2023/08/01 07:43:02;;;;;;;7.97;2.85;;;23.40;62.00;;;;;;6108385;28;82831;-63
2023/08/01 07:46:03;;;;;;;5.00;3.10;;;23.40;62.30;;;;;;6119695;28;81686;-63
2023/08/01 07:49:03;;;;;;;13.18;3.70;;;23.50;62.30;;;;;;6121386;28;82264;-65
2023/08/01 07:52:03;;;;;;;5.00;2.80;;;23.50;62.60;;;;;;6130534;28;81180;-64
2023/08/01 07:55:04;;;;;;;6.93;3.20;;;23.50;62.90;;;;;;6120153;28;80691;-49
2023/08/01 07:58:04;;;;;;;6.80;3.30;;;23.50;63.10;;;;;;6127346;28;81293;-50
2023/08/01 08:01:05;;;;;;;4.55;2.53;;;23.50;63.40;;;;;;6130222;28;80454;-47
2023/08/01 08:04:06;;;;;;;5.35;3.55;;;23.50;63.60;;;;;;6121125;28;83998;-47
2023/08/01 08:07:06;;;;;;;5.70;3.17;;;23.50;63.70;;;;;;6117678;28;81268;-48
2023/08/01 08:10:07;;;;;;;5.25;3.08;;;23.50;63.90;;;;;;6133721;28;80900;-45
2023/08/01 08:13:07;;;;;;;7.72;3.20;;;23.50;64.20;;;;;;6134702;28;80115;-65
2023/08/01 08:16:07;;;;;;;6.10;2.92;;;23.60;64.40;;;;;;6120393;28;81102;-64
2023/08/01 08:19:09;;;;;;;6.20;3.38;;;23.60;64.50;;;;;;6129249;28;80591;-65
2023/08/01 08:22:09;;;;;;;7.40;3.90;;;23.60;64.90;;;;;;6128977;28;81010;-63
2023/08/01 08:25:10;;;;;;;7.53;2.90;;;23.60;65.10;;;;;;6107574;28;83970;-65
2023/08/01 08:28:10;;;;;;;6.95;3.35;;;23.70;65.20;;;;;;6136576;28;80375;-64
2023/08/01 08:31:11;;;;;;;8.43;3.03;;;23.70;65.20;;;;;;6133735;28;80343;-69
2023/08/01 08:34:11;;;;;;;4.38;2.80;;;23.70;65.50;;;;;;6134376;28;80953;-69
2023/08/01 08:37:12;;;;;;;7.63;3.72;;;23.80;65.70;;;;;;6118544;28;82290;-70
2023/08/01 08:40:13;;;;;;;3.53;3.05;;;23.80;65.60;;;;;;6129255;28;81766;-70
2023/08/01 08:43:14;;;;;;;7.07;3.45;;;23.80;65.70;;;;;;6126107;28;80428;-70
2023/08/01 08:46:15;;;;;;;6.75;3.47;;;23.80;66.00;;;;;;6119949;28;81255;-69
2023/08/01 08:49:16;;;;;;;3.63;2.65;;;23.90;66.30;;;;;;6130117;28;80264;-69
2023/08/01 08:52:16;;;;;;;4.10;2.92;;;23.90;66.20;;;;;;6119253;28;81301;-73
2023/08/01 08:55:21;;;;;;;6.38;3.15;;;23.90;66.40;;;;;;6141538;28;80817;-71
2023/08/01 08:58:21;;;;;;;5.68;3.17;;;23.90;66.10;;;;;;6133935;28;82577;-70
2023/08/01 09:01:22;;;;;;;8.57;3.15;;;23.80;66.30;;;;;;6142581;28;81022;-71
2023/08/01 09:04:22;;;;;;;6.18;3.17;;;23.80;66.10;;;;;;6116094;28;81521;-72
2023/08/01 09:07:23;;;;;;;6.53;3.20;;;23.80;65.90;;;;;;6113929;28;81751;-67
2023/08/01 09:10:23;;;;;;;7.30;2.85;;;23.80;65.90;;;;;;6117555;28;83285;-66
2023/08/01 09:13:24;;;;;;;9.02;3.30;;;23.80;66.10;;;;;;6121625;28;82251;-69
2023/08/01 09:16:24;;;;;;;13.40;5.63;;;23.80;66.20;;;;;;6114668;28;81552;-70
2023/08/01 09:19:27;;;;;;;8.85;4.07;;;23.80;66.40;;;;;;6104723;28;82745;-68
2023/08/01 09:22:27;;;;;;;5.63;3.10;;;23.70;66.70;;;;;;6117338;28;80977;-68
2023/08/01 09:25:28;;;;;;;11.52;3.85;;;23.80;66.50;;;;;;6118430;28;80848;-69
2023/08/01 09:28:28;;;;;;;4.35;3.05;;;23.70;66.70;;;;;;6104315;28;82785;-63
2023/08/01 09:31:29;;;;;;;4.60;3.30;;;23.70;66.60;;;;;;6114610;28;80485;-63
2023/08/01 09:34:29;;;;;;;7.05;3.50;;;23.70;66.60;;;;;;6107717;28;80935;-63
2023/08/01 09:37:30;;;;;;;7.10;3.25;;;23.70;66.90;;;;;;6119047;28;80878;-62
2023/08/01 09:40:30;;;;;;;4.25;2.90;;;23.80;67.00;;;;;;6110572;28;84004;-63
2023/08/01 09:43:31;;;;;;;8.73;2.80;;;23.80;67.20;;;;;;6122371;28;80641;-61
2023/08/01 09:46:32;;;;;;;5.22;2.92;;;23.80;67.10;;;;;;6120695;28;82109;-63
2023/08/01 09:49:32;;;;;;;5.07;3.30;;;23.80;67.30;;;;;;6115229;28;82557;-61
2023/08/01 09:52:33;;;;;;;8.05;3.05;;;23.90;67.40;;;;;;6126271;28;81376;-60
2023/08/01 09:55:33;;;;;;;6.32;3.45;;;23.80;67.40;;;;;;6116818;28;82795;-61
2023/08/01 09:58:34;;;;;;;7.78;3.67;;;23.80;67.50;;;;;;6114706;28;80595;-60
2023/08/01 10:01:34;;;;;;;7.03;4.05;;;23.70;67.70;;;;;;6098047;28;81363;-63
2023/08/01 10:04:35;;;;;;;8.15;3.80;;;23.70;68.40;;;;;;6108636;28;80520;-60
2023/08/01 10:07:35;;;;;;;10.60;4.13;;;23.70;68.70;;;;;;6113768;28;80928;-62
2023/08/01 10:10:36;;;;;;;8.18;3.63;;;23.70;69.20;;;;;;6124400;28;81058;-59
2023/08/01 10:13:36;;;;;;;8.30;3.55;;;23.70;69.50;;;;;;6119354;28;80424;-62
2023/08/01 10:16:37;;;;;;;4.82;3.70;;;23.60;70.00;;;;;;6111682;28;80453;-61
2023/08/01 10:19:37;;;;;;;5.00;3.65;;;23.60;70.50;;;;;;6107818;28;81442;-61
2023/08/01 10:22:38;;;;;;;14.93;3.88;;;23.60;70.80;;;;;;6104756;28;82262;-54
2023/08/01 10:25:39;;;;;;;9.32;3.80;;;23.60;71.10;;;;;;6119059;28;81871;-52
2023/08/01 10:28:39;;;;;;;7.88;4.20;;;23.60;71.80;;;;;;6122127;28;80254;-51
2023/08/01 10:31:40;;;;;;;5.43;3.90;;;23.60;72.50;;;;;;6109163;28;81521;-55
2023/08/01 10:34:40;;;;;;;9.23;3.80;;;23.70;72.40;;;;;;6111630;28;80972;-56
2023/08/01 10:37:41;;;;;;;7.45;4.78;;;23.70;73.20;;;;;;6109993;28;83963;-53
2023/08/01 10:40:42;;;;;;;7.38;3.95;;;23.70;73.30;;;;;;6121583;28;80728;-53
2023/08/01 10:43:42;;;;;;;5.43;3.65;;;23.80;73.40;;;;;;6102740;28;81983;-56
2023/08/01 10:46:43;;;;;;;9.85;4.35;;;24.00;72.90;;;;;;6113619;28;81972;-55
2023/08/01 10:49:44;;;;;;;7.72;4.55;;;24.00;73.00;;;;;;6121547;28;84589;-54
2023/08/01 10:52:44;;;;;;;9.43;4.50;;;24.10;73.10;;;;;;6120967;28;88456;-52
2023/08/01 10:55:45;;;;;;;6.93;4.32;;;24.10;73.70;;;;;;6109992;28;82139;-55
2023/08/01 10:58:45;;;;;;;5.60;3.45;;;24.10;74.30;;;;;;6106630;28;82021;-52
2023/08/01 11:01:46;;;;;;;9.65;3.83;;;24.20;74.40;;;;;;6113189;28;82236;-48
2023/08/01 11:04:46;;;;;;;5.53;3.55;;;24.20;74.30;;;;;;6102932;28;82310;-46
2023/08/01 11:07:47;;;;;;;5.90;3.78;;;24.30;74.10;;;;;;6118262;28;81144;-48
2023/08/01 11:10:47;;;;;;;9.50;4.45;;;24.30;75.40;;;;;;6130500;28;81194;-47
2023/08/01 11:13:48;;;;;;;5.00;3.58;;;24.30;74.90;;;;;;6096651;28;82587;-49
2023/08/01 11:16:49;;;;;;;7.30;4.25;;;24.30;74.90;;;;;;6141882;28;81476;-48
2023/08/01 11:19:49;;;;;;;10.02;4.20;;;24.40;76.20;;;;;;6121365;28;80929;-46
2023/08/01 11:22:50;;;;;;;12.30;4.38;;;24.40;76.20;;;;;;6124935;28;84511;-45
2023/08/01 11:25:50;;;;;;;11.05;4.28;;;24.40;76.60;;;;;;6117994;28;80650;-47
2023/08/01 11:28:51;;;;;;;9.15;4.13;;;24.40;76.60;;;;;;6118796;28;84822;-47
2023/08/01 11:31:52;;;;;;;7.78;4.72;;;24.30;78.00;;;;;;6124578;28;80382;-47
2023/08/01 11:34:53;;;;;;;12.27;4.93;;;24.20;79.00;;;;;;6110034;28;81561;-57
2023/08/01 11:37:53;;;;;;;8.88;5.00;;;24.20;79.90;;;;;;6133621;28;80546;-54
2023/08/01 11:40:54;;;;;;;6.70;4.38;;;24.10;80.70;;;;;;6118016;28;80297;-55
2023/08/01 11:43:54;;;;;;;9.43;3.83;;;24.10;80.90;;;;;;6116254;28;81737;-56
2023/08/01 11:46:55;;;;;;;7.75;4.38;;;24.20;80.90;;;;;;6117807;28;81299;-53
2023/08/01 11:49:55;;;;;;;8.65;4.07;;;24.30;80.30;;;;;;6125381;28;81264;-55
2023/08/01 11:52:56;;;;;;;8.05;3.90;;;24.30;80.20;;;;;;6115246;28;82713;-55
2023/08/01 11:55:57;;;;;;;13.68;4.40;;;24.30;80.10;;;;;;6097279;28;80639;-48
2023/08/01 11:58:58;;;;;;;13.13;4.28;;;24.30;80.30;;;;;;6125952;28;80566;-45
2023/08/01 12:01:59;;;;;;;12.82;4.20;;;24.30;80.40;;;;;;6119128;28;80214;-47
2023/08/01 12:04:59;;;;;;;8.23;4.22;;;24.20;81.20;;;;;;6128532;28;81334;-49
2023/08/01 12:08:00;;;;;;;15.63;4.07;;;24.20;81.20;;;;;;6115995;28;80784;-46
2023/08/01 12:11:00;;;;;;;5.80;3.67;;;24.30;81.20;;;;;;6117496;28;80865;-51
2023/08/01 12:14:01;;;;;;;10.18;4.57;;;24.20;81.40;;;;;;6110668;28;81510;-55
2023/08/01 12:17:01;;;;;;;9.20;4.22;;;24.10;82.20;;;;;;6093073;28;82762;-55
2023/08/01 12:20:02;;;;;;;8.07;3.67;;;24.00;83.30;;;;;;6081283;28;83444;-57
2023/08/01 12:23:02;;;;;;;6.72;3.58;;;24.00;83.50;;;;;;6142764;28;82783;-59
2023/08/01 12:26:03;;;;;;;10.10;3.50;;;23.90;84.40;;;;;;6119698;28;80740;-54
2023/08/01 12:29:04;;;;;;;4.80;3.03;;;23.80;84.30;;;;;;6145216;28;85392;-57
2023/08/01 12:32:06;;;;;;;5.30;3.45;;;23.90;83.50;;;;;;6116282;28;81032;-68
2023/08/01 12:35:07;;;;;;;12.10;3.72;;;23.70;83.80;;;;;;6129397;28;80896;-68
2023/08/01 12:38:07;;;;;;;5.80;2.88;;;23.60;85.00;;;;;;6121479;28;87012;-69
2023/08/01 12:41:08;;;;;;;7.55;3.05;;;23.50;85.90;;;;;;6121999;28;81296;-67
2023/08/01 12:44:08;;;;;;;5.13;3.17;;;23.50;86.30;;;;;;6115229;28;82169;-67
2023/08/01 12:47:11;;;;;;;6.28;3.35;;;23.30;86.50;;;;;;6122961;28;80590;-67
2023/08/01 12:50:11;;;;;;;6.40;3.53;;;23.20;86.70;;;;;;6106329;28;80639;-68
2023/08/01 12:53:12;;;;;;;8.73;4.07;;;23.20;86.50;;;;;;6127635;28;81316;-67
2023/08/01 12:56:12;;;;;;;8.60;4.25;;;23.20;87.10;;;;;;6106914;28;80356;-69
2023/08/01 12:59:13;;;;;;;6.15;3.08;;;23.10;88.20;;;;;;6109452;28;82066;-69
2023/08/01 13:02:14;;;;;;;8.80;3.17;;;23.10;89.10;;;;;;6121054;28;80358;-68
2023/08/01 13:05:14;;;;;;;7.13;3.08;;;23.10;89.20;;;;;;6109056;28;82122;-69
2023/08/01 13:08:15;;;;;;;5.45;2.83;;;23.10;89.00;;;;;;6127619;28;80666;-59
2023/08/01 13:11:15;;;;;;;7.43;3.55;;;23.10;88.30;;;;;;6131127;28;81595;-60
2023/08/01 13:14:16;;;;;;;6.50;2.72;;;23.00;88.20;;;;;;6130374;28;84556;-60
2023/08/01 13:17:16;;;;;;;4.07;2.80;;;23.00;88.50;;;;;;6138233;28;80921;-59
2023/08/01 13:20:17;;;;;;;7.57;3.08;;;22.90;88.10;;;;;;6114881;28;82444;-62
2023/08/01 13:23:18;;;;;;;3.70;2.58;;;23.00;88.00;;;;;;6131474;28;80877;-61
2023/08/01 13:26:18;;;;;;;4.85;3.28;;;23.00;87.70;;;;;;6117422;28;80682;-71
2023/08/01 13:29:19;;;;;;;8.02;3.65;;;23.10;87.50;;;;;;6116347;28;80506;-68
2023/08/01 13:32:20;;;;;;;4.43;2.83;;;23.10;86.90;;;;;;6111734;28;81924;-68
2023/08/01 13:35:20;;;;;;;7.35;3.20;;;23.10;86.90;;;;;;6100576;28;80467;-68
2023/08/01 13:38:21;;;;;;;8.48;2.83;;;23.00;86.80;;;;;;6119521;28;81251;-69
2023/08/01 13:41:21;;;;;;;6.22;3.28;;;22.90;87.90;;;;;;6111937;28;82291;-67
2023/08/01 13:44:22;;;;;;;6.75;3.50;;;22.80;89.20;;;;;;6143470;28;81910;-60
2023/08/01 13:47:22;;;;;;;6.45;2.92;;;22.60;90.00;;;;;;6112611;28;84105;-60
2023/08/01 13:50:23;;;;;;;3.67;2.50;;;22.60;90.50;;;;;;6129637;28;81725;-61
2023/08/01 13:53:23;;;;;;;5.20;2.88;;;22.40;90.70;;;;;;6132127;28;81562;-59
2023/08/01 13:56:24;;;;;;;3.70;2.55;;;22.40;90.70;;;;;;6132380;28;80584;-59
2023/08/01 13:59:25;;;;;;;6.55;2.97;;;22.30;91.40;;;;;;6145591;28;80875;-60
2023/08/01 14:02:26;;;;;;;5.70;3.25;;;22.20;91.50;;;;;;6123368;28;82481;-69
2023/08/01 14:05:26;;;;;;;3.95;2.60;;;22.10;91.40;;;;;;6118505;28;81264;-68
2023/08/01 14:08:27;;;;;;;4.38;2.75;;;21.90;91.80;;;;;;6120867;28;81576;-69
2023/08/01 14:11:27;;;;;;;4.55;2.47;;;21.80;92.30;;;;;;6133070;28;81980;-69
2023/08/01 14:14:28;;;;;;;3.35;2.33;;;21.80;92.10;;;;;;6121713;28;81392;-70
2023/08/01 14:17:28;;;;;;;3.28;2.63;;;21.80;92.60;;;;;;6131903;28;83972;-70
2023/08/01 14:20:29;;;;;;;5.50;2.65;;;21.70;92.60;;;;;;6131246;28;80627;-51
2023/08/01 14:23:29;;;;;;;4.45;2.88;;;21.60;93.10;;;;;;6120683;28;81646;-51
2023/08/01 14:26:30;;;;;;;4.45;2.65;;;21.70;92.90;;;;;;6128997;28;80545;-51
2023/08/01 14:29:30;;;;;;;5.30;2.83;;;21.70;92.80;;;;;;6115967;28;82236;-47
2023/08/01 14:32:31;;;;;;;5.63;2.92;;;21.70;92.80;;;;;;6121837;28;80339;-50
2023/08/01 14:35:31;;;;;;;7.65;3.33;;;21.80;92.80;;;;;;6112495;28;80862;-46
2023/08/01 14:38:32;;;;;;;4.30;3.15;;;21.80;92.60;;;;;;6125661;28;82940;-46
2023/08/01 14:41:33;;;;;;;4.20;3.03;;;21.70;92.70;;;;;;6126224;28;81097;-71
2023/08/01 14:44:34;;;;;;;4.05;2.55;;;21.80;93.10;;;;;;6121485;28;80092;-71
2023/08/01 14:47:34;;;;;;;4.63;3.22;;;21.80;93.20;;;;;;6132350;28;80517;-69
2023/08/01 14:50:35;;;;;;;3.47;2.80;;;21.80;93.10;;;;;;6109335;28;81991;-70
2023/08/01 14:53:35;;;;;;;6.10;2.60;;;21.80;93.50;;;;;;6123350;28;80293;-70
2023/08/01 14:56:36;;;;;;;6.78;2.63;;;21.70;93.50;;;;;;6127051;28;82202;-69
2023/08/01 14:59:36;;;;;;;5.47;3.00;;;21.70;93.40;;;;;;6137923;28;80494;-69
2023/08/01 15:02:37;;;;;;;5.45;3.15;;;21.70;93.80;;;;;;6112480;28;81104;-69
2023/08/01 15:05:37;;;;;;;3.65;2.40;;;21.70;94.00;;;;;;6100392;28;82490;-71
2023/08/01 15:08:38;;;;;;;6.28;3.03;;;21.70;94.20;;;;;;6118933;28;80521;-69
2023/08/01 15:11:39;;;;;;;3.50;2.67;;;21.70;94.50;;;;;;6109791;28;80934;-71
2023/08/01 15:14:39;;;;;;;4.85;2.70;;;21.70;94.60;;;;;;6126062;28;80947;-71
2023/08/01 15:17:40;;;;;;;5.15;3.28;;;21.70;94.70;;;;;;6114011;28;81264;-65
2023/08/01 15:20:42;;;;;;;4.65;3.15;;;21.70;95.30;;;;;;6123866;28;81443;-69
2023/08/01 15:23:42;;;;;;;3.45;2.70;;;21.70;95.30;;;;;;6125862;28;81092;-71
2023/08/01 15:26:43;;;;;;;4.82;3.15;;;21.70;95.40;;;;;;6116950;28;82093;-69
2023/08/01 15:29:43;;;;;;;5.70;2.95;;;21.70;95.50;;;;;;6131727;28;80623;-70
2023/08/01 15:32:44;;;;;;;5.38;2.70;;;21.70;95.10;;;;;;6112484;28;82419;-70
2023/08/01 15:35:44;;;;;;;6.57;2.63;;;21.70;95.00;;;;;;6113063;28;81408;-59
2023/08/01 15:38:45;;;;;;;4.65;2.90;;;21.80;94.70;;;;;;6117499;28;84216;-60